sensor_id;sensor_type;location;lat;lon;timestamp;P1;durP1;ratioP1;P2;durP2;ratioP2
67130;SDS011;54051;53.464;49.532;2022-07-23T00:00:32;8.07;;;4.90;;
67130;SDS011;54051;53.464;49.532;2022-07-23T00:02:58;7.78;;;4.70;;
67130;SDS011;54051;53.464;49.532;2022-07-23T00:05:24;5.78;;;4.00;;
67130;SDS011;54051;53.464;49.532;2022-07-23T00:07:50;7.18;;;4.22;;
67130;SDS011;54051;53.464;49.532;2022-07-23T00:10:16;6.23;;;4.10;;
67130;SDS011;54051;53.464;49.532;2022-07-23T00:12:42;6.72;;;4.20;;
67130;SDS011;54051;53.464;49.532;2022-07-23T00:15:08;5.50;;;3.20;;
67130;SDS011;54051;53.464;49.532;2022-07-23T00:17:35;5.15;;;3.20;;
67130;SDS011;54051;53.464;49.532;2022-07-23T00:20:01;6.63;;;3.60;;
67130;SDS011;54051;53.464;49.532;2022-07-23T00:22:28;4.82;;;3.17;;
67130;SDS011;54051;53.464;49.532;2022-07-23T00:24:55;4.88;;;3.22;;
67130;SDS011;54051;53.464;49.532;2022-07-23T00:29:47;5.43;;;3.10;;
67130;SDS011;54051;53.464;49.532;2022-07-23T00:32:14;6.32;;;3.38;;
67130;SDS011;54051;53.464;49.532;2022-07-23T00:34:40;6.25;;;3.40;;
67130;SDS011;54051;53.464;49.532;2022-07-23T00:37:06;6.00;;;3.65;;
67130;SDS011;54051;53.464;49.532;2022-07-23T00:39:32;6.30;;;3.73;;
67130;SDS011;54051;53.464;49.532;2022-07-23T00:41:58;5.07;;;3.58;;
67130;SDS011;54051;53.464;49.532;2022-07-23T00:44:25;6.40;;;3.80;;
67130;SDS011;54051;53.464;49.532;2022-07-23T00:46:54;5.88;;;3.70;;
67130;SDS011;54051;53.464;49.532;2022-07-23T00:49:25;5.60;;;3.65;;
67130;SDS011;54051;53.464;49.532;2022-07-23T00:51:53;8.68;;;3.88;;
67130;SDS011;54051;53.464;49.532;2022-07-23T00:56:47;5.45;;;3.78;;
67130;SDS011;54051;53.464;49.532;2022-07-23T00:59:13;6.28;;;4.07;;
67130;SDS011;54051;53.464;49.532;2022-07-23T01:01:39;5.93;;;4.00;;
67130;SDS011;54051;53.464;49.532;2022-07-23T01:04:06;6.95;;;4.20;;
67130;SDS011;54051;53.464;49.532;2022-07-23T01:06:37;5.88;;;4.07;;
67130;SDS011;54051;53.464;49.532;2022-07-23T01:09:04;6.43;;;4.25;;
67130;SDS011;54051;53.464;49.532;2022-07-23T01:11:34;7.38;;;3.97;;
67130;SDS011;54051;53.464;49.532;2022-07-23T01:14:08;7.88;;;3.92;;
67130;SDS011;54051;53.464;49.532;2022-07-23T01:16:35;6.07;;;4.13;;
67130;SDS011;54051;53.464;49.532;2022-07-23T01:19:02;6.28;;;3.90;;
67130;SDS011;54051;53.464;49.532;2022-07-23T01:21:30;7.90;;;4.10;;
67130;SDS011;54051;53.464;49.532;2022-07-23T01:23:56;6.80;;;4.30;;
67130;SDS011;54051;53.464;49.532;2022-07-23T01:26:22;7.93;;;4.13;;
67130;SDS011;54051;53.464;49.532;2022-07-23T01:28:48;7.73;;;4.00;;
67130;SDS011;54051;53.464;49.532;2022-07-23T01:31:14;6.20;;;4.60;;
67130;SDS011;54051;53.464;49.532;2022-07-23T01:33:40;6.70;;;4.22;;
67130;SDS011;54051;53.464;49.532;2022-07-23T01:36:06;6.47;;;4.30;;
67130;SDS011;54051;53.464;49.532;2022-07-23T01:38:32;7.25;;;4.57;;
67130;SDS011;54051;53.464;49.532;2022-07-23T01:40:58;6.50;;;4.30;;
67130;SDS011;54051;53.464;49.532;2022-07-23T01:43:24;7.43;;;4.37;;
67130;SDS011;54051;53.464;49.532;2022-07-23T01:45:51;7.43;;;4.47;;
67130;SDS011;54051;53.464;49.532;2022-07-23T01:48:17;7.65;;;4.38;;
67130;SDS011;54051;53.464;49.532;2022-07-23T01:50:43;6.10;;;4.20;;
67130;SDS011;54051;53.464;49.532;2022-07-23T01:53:09;6.28;;;4.25;;
67130;SDS011;54051;53.464;49.532;2022-07-23T01:55:34;7.23;;;4.07;;
67130;SDS011;54051;53.464;49.532;2022-07-23T01:58:00;7.43;;;4.77;;
67130;SDS011;54051;53.464;49.532;2022-07-23T02:02:53;6.45;;;3.88;;
67130;SDS011;54051;53.464;49.532;2022-07-23T02:05:19;5.70;;;4.07;;
67130;SDS011;54051;53.464;49.532;2022-07-23T02:07:45;10.30;;;4.30;;
67130;SDS011;54051;53.464;49.532;2022-07-23T02:10:11;6.93;;;3.70;;
67130;SDS011;54051;53.464;49.532;2022-07-23T02:12:37;6.50;;;4.00;;
67130;SDS011;54051;53.464;49.532;2022-07-23T02:15:03;6.38;;;3.85;;
67130;SDS011;54051;53.464;49.532;2022-07-23T02:19:55;6.50;;;4.18;;
67130;SDS011;54051;53.464;49.532;2022-07-23T02:22:21;6.13;;;4.10;;
67130;SDS011;54051;53.464;49.532;2022-07-23T02:24:47;6.95;;;4.10;;
67130;SDS011;54051;53.464;49.532;2022-07-23T02:27:13;6.13;;;4.15;;
67130;SDS011;54051;53.464;49.532;2022-07-23T02:29:39;6.73;;;4.67;;
67130;SDS011;54051;53.464;49.532;2022-07-23T02:32:05;7.22;;;4.53;;
67130;SDS011;54051;53.464;49.532;2022-07-23T02:34:31;8.00;;;4.47;;
67130;SDS011;54051;53.464;49.532;2022-07-23T02:36:57;6.20;;;4.30;;
67130;SDS011;54051;53.464;49.532;2022-07-23T02:39:23;7.78;;;4.60;;
67130;SDS011;54051;53.464;49.532;2022-07-23T02:41:49;6.03;;;4.65;;
67130;SDS011;54051;53.464;49.532;2022-07-23T02:44:15;6.13;;;4.60;;
67130;SDS011;54051;53.464;49.532;2022-07-23T02:46:41;7.20;;;4.78;;
67130;SDS011;54051;53.464;49.532;2022-07-23T02:49:07;8.30;;;5.13;;
67130;SDS011;54051;53.464;49.532;2022-07-23T02:51:33;7.80;;;5.00;;
67130;SDS011;54051;53.464;49.532;2022-07-23T02:53:59;7.32;;;4.80;;
67130;SDS011;54051;53.464;49.532;2022-07-23T02:56:25;7.65;;;4.18;;
67130;SDS011;54051;53.464;49.532;2022-07-23T02:58:51;8.13;;;4.60;;
67130;SDS011;54051;53.464;49.532;2022-07-23T03:01:17;7.35;;;4.72;;
67130;SDS011;54051;53.464;49.532;2022-07-23T03:03:43;7.35;;;4.55;;
67130;SDS011;54051;53.464;49.532;2022-07-23T03:06:09;7.10;;;4.60;;
67130;SDS011;54051;53.464;49.532;2022-07-23T03:08:35;6.20;;;4.40;;
67130;SDS011;54051;53.464;49.532;2022-07-23T03:11:01;7.05;;;4.57;;
67130;SDS011;54051;53.464;49.532;2022-07-23T03:13:27;6.25;;;4.35;;
67130;SDS011;54051;53.464;49.532;2022-07-23T03:15:54;8.02;;;4.25;;
67130;SDS011;54051;53.464;49.532;2022-07-23T03:18:20;8.30;;;4.40;;
67130;SDS011;54051;53.464;49.532;2022-07-23T03:20:46;5.90;;;4.40;;
67130;SDS011;54051;53.464;49.532;2022-07-23T03:23:12;9.20;;;4.35;;
67130;SDS011;54051;53.464;49.532;2022-07-23T03:25:38;6.43;;;4.35;;
67130;SDS011;54051;53.464;49.532;2022-07-23T03:28:04;6.90;;;5.00;;
67130;SDS011;54051;53.464;49.532;2022-07-23T03:30:30;6.93;;;4.53;;
67130;SDS011;54051;53.464;49.532;2022-07-23T03:32:56;6.30;;;4.47;;
67130;SDS011;54051;53.464;49.532;2022-07-23T03:35:22;7.07;;;4.55;;
67130;SDS011;54051;53.464;49.532;2022-07-23T03:38:10;7.60;;;4.20;;
67130;SDS011;54051;53.464;49.532;2022-07-23T03:40:38;7.78;;;4.05;;
67130;SDS011;54051;53.464;49.532;2022-07-23T03:43:04;7.45;;;4.70;;
67130;SDS011;54051;53.464;49.532;2022-07-23T03:45:30;7.05;;;4.78;;
67130;SDS011;54051;53.464;49.532;2022-07-23T03:50:24;7.50;;;4.60;;
67130;SDS011;54051;53.464;49.532;2022-07-23T03:52:50;7.32;;;5.15;;
67130;SDS011;54051;53.464;49.532;2022-07-23T03:55:17;7.55;;;5.10;;
67130;SDS011;54051;53.464;49.532;2022-07-23T03:57:43;7.57;;;4.95;;
67130;SDS011;54051;53.464;49.532;2022-07-23T04:00:10;7.03;;;4.82;;
67130;SDS011;54051;53.464;49.532;2022-07-23T04:02:38;8.70;;;4.82;;
67130;SDS011;54051;53.464;49.532;2022-07-23T04:05:05;6.85;;;5.00;;
67130;SDS011;54051;53.464;49.532;2022-07-23T04:07:38;6.82;;;4.68;;
67130;SDS011;54051;53.464;49.532;2022-07-23T04:10:04;8.73;;;4.80;;
67130;SDS011;54051;53.464;49.532;2022-07-23T04:12:30;7.60;;;4.60;;
67130;SDS011;54051;53.464;49.532;2022-07-23T04:14:56;6.80;;;4.50;;
67130;SDS011;54051;53.464;49.532;2022-07-23T04:17:23;5.57;;;4.28;;
67130;SDS011;54051;53.464;49.532;2022-07-23T04:19:51;6.43;;;4.40;;
67130;SDS011;54051;53.464;49.532;2022-07-23T04:22:17;10.23;;;4.93;;
67130;SDS011;54051;53.464;49.532;2022-07-23T04:24:45;6.65;;;4.57;;
67130;SDS011;54051;53.464;49.532;2022-07-23T04:27:12;6.97;;;4.57;;
67130;SDS011;54051;53.464;49.532;2022-07-23T04:29:38;7.95;;;4.70;;
67130;SDS011;54051;53.464;49.532;2022-07-23T04:34:34;7.88;;;4.97;;
67130;SDS011;54051;53.464;49.532;2022-07-23T04:37:00;8.02;;;5.00;;
67130;SDS011;54051;53.464;49.532;2022-07-23T04:39:27;8.32;;;4.78;;
67130;SDS011;54051;53.464;49.532;2022-07-23T04:42:12;7.43;;;4.30;;
67130;SDS011;54051;53.464;49.532;2022-07-23T04:44:38;7.13;;;4.03;;
67130;SDS011;54051;53.464;49.532;2022-07-23T04:47:04;6.05;;;4.18;;
67130;SDS011;54051;53.464;49.532;2022-07-23T04:49:30;7.32;;;4.50;;
67130;SDS011;54051;53.464;49.532;2022-07-23T04:51:56;8.90;;;4.50;;
67130;SDS011;54051;53.464;49.532;2022-07-23T04:54:22;5.88;;;4.28;;
67130;SDS011;54051;53.464;49.532;2022-07-23T04:56:48;7.88;;;4.30;;
67130;SDS011;54051;53.464;49.532;2022-07-23T04:59:14;5.97;;;4.13;;
67130;SDS011;54051;53.464;49.532;2022-07-23T05:01:40;7.05;;;3.90;;
67130;SDS011;54051;53.464;49.532;2022-07-23T05:04:07;6.95;;;3.95;;
67130;SDS011;54051;53.464;49.532;2022-07-23T05:06:33;6.20;;;4.00;;
67130;SDS011;54051;53.464;49.532;2022-07-23T05:08:59;5.25;;;4.07;;
67130;SDS011;54051;53.464;49.532;2022-07-23T05:11:25;8.63;;;4.78;;
67130;SDS011;54051;53.464;49.532;2022-07-23T05:13:51;5.97;;;3.92;;
67130;SDS011;54051;53.464;49.532;2022-07-23T05:16:17;7.18;;;4.05;;
67130;SDS011;54051;53.464;49.532;2022-07-23T05:18:43;6.30;;;3.90;;
67130;SDS011;54051;53.464;49.532;2022-07-23T05:21:10;6.57;;;4.10;;
67130;SDS011;54051;53.464;49.532;2022-07-23T05:26:01;5.90;;;4.10;;
67130;SDS011;54051;53.464;49.532;2022-07-23T05:30:53;7.15;;;3.90;;
67130;SDS011;54051;53.464;49.532;2022-07-23T05:33:19;6.00;;;3.80;;
67130;SDS011;54051;53.464;49.532;2022-07-23T05:35:45;5.55;;;3.83;;
67130;SDS011;54051;53.464;49.532;2022-07-23T05:40:37;5.88;;;3.75;;
67130;SDS011;54051;53.464;49.532;2022-07-23T05:45:29;5.78;;;3.70;;
67130;SDS011;54051;53.464;49.532;2022-07-23T05:47:55;7.25;;;3.60;;
67130;SDS011;54051;53.464;49.532;2022-07-23T05:50:21;9.63;;;4.00;;
67130;SDS011;54051;53.464;49.532;2022-07-23T05:52:47;5.75;;;3.50;;
67130;SDS011;54051;53.464;49.532;2022-07-23T05:55:13;5.43;;;3.45;;
67130;SDS011;54051;53.464;49.532;2022-07-23T05:57:40;7.05;;;3.75;;
67130;SDS011;54051;53.464;49.532;2022-07-23T06:00:07;6.57;;;3.25;;
67130;SDS011;54051;53.464;49.532;2022-07-23T06:02:34;6.30;;;3.50;;
67130;SDS011;54051;53.464;49.532;2022-07-23T06:05:01;6.97;;;4.15;;
67130;SDS011;54051;53.464;49.532;2022-07-23T06:07:27;8.05;;;4.20;;
67130;SDS011;54051;53.464;49.532;2022-07-23T06:12:19;9.48;;;4.68;;
67130;SDS011;54051;53.464;49.532;2022-07-23T06:17:13;12.00;;;5.03;;
67130;SDS011;54051;53.464;49.532;2022-07-23T06:19:39;8.50;;;4.93;;
67130;SDS011;54051;53.464;49.532;2022-07-23T06:22:05;8.95;;;5.10;;
67130;SDS011;54051;53.464;49.532;2022-07-23T06:24:31;11.05;;;4.68;;
67130;SDS011;54051;53.464;49.532;2022-07-23T06:26:57;7.38;;;4.35;;
67130;SDS011;54051;53.464;49.532;2022-07-23T06:31:49;6.57;;;4.65;;
67130;SDS011;54051;53.464;49.532;2022-07-23T06:36:41;8.45;;;4.72;;
67130;SDS011;54051;53.464;49.532;2022-07-23T06:41:33;5.75;;;4.20;;
67130;SDS011;54051;53.464;49.532;2022-07-23T06:46:25;8.38;;;4.03;;
67130;SDS011;54051;53.464;49.532;2022-07-23T06:51:16;7.43;;;4.00;;
67130;SDS011;54051;53.464;49.532;2022-07-23T06:56:08;5.18;;;3.70;;
67130;SDS011;54051;53.464;49.532;2022-07-23T06:58:34;5.68;;;3.65;;
67130;SDS011;54051;53.464;49.532;2022-07-23T07:03:26;6.22;;;3.80;;
67130;SDS011;54051;53.464;49.532;2022-07-23T07:05:52;5.38;;;3.80;;
67130;SDS011;54051;53.464;49.532;2022-07-23T07:08:18;5.15;;;3.63;;
67130;SDS011;54051;53.464;49.532;2022-07-23T07:13:10;6.53;;;3.70;;
67130;SDS011;54051;53.464;49.532;2022-07-23T07:15:36;5.65;;;3.58;;
67130;SDS011;54051;53.464;49.532;2022-07-23T07:20:28;5.72;;;3.40;;
67130;SDS011;54051;53.464;49.532;2022-07-23T07:25:20;6.35;;;3.70;;
67130;SDS011;54051;53.464;49.532;2022-07-23T07:30:11;6.40;;;4.00;;
67130;SDS011;54051;53.464;49.532;2022-07-23T07:32:38;8.13;;;3.65;;
67130;SDS011;54051;53.464;49.532;2022-07-23T07:35:05;9.00;;;3.75;;
67130;SDS011;54051;53.464;49.532;2022-07-23T07:37:31;6.63;;;3.83;;
67130;SDS011;54051;53.464;49.532;2022-07-23T07:39:58;6.95;;;3.88;;
67130;SDS011;54051;53.464;49.532;2022-07-23T07:44:50;5.97;;;4.10;;
67130;SDS011;54051;53.464;49.532;2022-07-23T07:47:16;6.72;;;4.00;;
67130;SDS011;54051;53.464;49.532;2022-07-23T07:52:08;8.45;;;4.00;;
67130;SDS011;54051;53.464;49.532;2022-07-23T07:54:35;6.57;;;3.70;;
67130;SDS011;54051;53.464;49.532;2022-07-23T07:57:01;8.45;;;3.83;;
67130;SDS011;54051;53.464;49.532;2022-07-23T07:59:27;7.90;;;3.67;;
67130;SDS011;54051;53.464;49.532;2022-07-23T08:04:19;7.03;;;3.67;;
67130;SDS011;54051;53.464;49.532;2022-07-23T08:06:45;6.72;;;3.90;;
67130;SDS011;54051;53.464;49.532;2022-07-23T08:11:37;5.45;;;3.50;;
67130;SDS011;54051;53.464;49.532;2022-07-23T08:16:28;4.90;;;3.30;;
67130;SDS011;54051;53.464;49.532;2022-07-23T08:21:20;5.30;;;3.63;;
67130;SDS011;54051;53.464;49.532;2022-07-23T08:26:12;6.00;;;3.65;;
67130;SDS011;54051;53.464;49.532;2022-07-23T08:31:04;4.47;;;3.47;;
67130;SDS011;54051;53.464;49.532;2022-07-23T08:33:31;6.20;;;3.75;;
67130;SDS011;54051;53.464;49.532;2022-07-23T08:35:58;5.75;;;3.50;;
67130;SDS011;54051;53.464;49.532;2022-07-23T08:38:24;5.97;;;3.65;;
67130;SDS011;54051;53.464;49.532;2022-07-23T08:40:51;5.32;;;3.70;;
67130;SDS011;54051;53.464;49.532;2022-07-23T08:43:24;5.63;;;3.83;;
67130;SDS011;54051;53.464;49.532;2022-07-23T08:45:53;5.70;;;3.50;;
67130;SDS011;54051;53.464;49.532;2022-07-23T08:48:24;6.25;;;3.72;;
67130;SDS011;54051;53.464;49.532;2022-07-23T08:50:53;7.10;;;3.80;;
67130;SDS011;54051;53.464;49.532;2022-07-23T08:53:21;5.88;;;3.95;;
67130;SDS011;54051;53.464;49.532;2022-07-23T08:55:50;5.38;;;4.00;;
67130;SDS011;54051;53.464;49.532;2022-07-23T08:58:17;6.28;;;3.85;;
67130;SDS011;54051;53.464;49.532;2022-07-23T09:00:45;10.02;;;6.78;;
67130;SDS011;54051;53.464;49.532;2022-07-23T09:03:15;8.90;;;5.03;;
67130;SDS011;54051;53.464;49.532;2022-07-23T09:05:43;6.70;;;4.68;;
67130;SDS011;54051;53.464;49.532;2022-07-23T09:10:44;7.78;;;5.03;;
67130;SDS011;54051;53.464;49.532;2022-07-23T09:13:25;7.22;;;4.65;;
67130;SDS011;54051;53.464;49.532;2022-07-23T09:15:57;8.48;;;4.53;;
67130;SDS011;54051;53.464;49.532;2022-07-23T09:18:28;8.45;;;4.43;;
67130;SDS011;54051;53.464;49.532;2022-07-23T09:21:05;6.65;;;4.50;;
67130;SDS011;54051;53.464;49.532;2022-07-23T09:31:30;6.63;;;5.20;;
67130;SDS011;54051;53.464;49.532;2022-07-23T09:34:08;6.57;;;4.93;;
67130;SDS011;54051;53.464;49.532;2022-07-23T09:36:40;8.32;;;5.20;;
67130;SDS011;54051;53.464;49.532;2022-07-23T09:39:07;7.30;;;4.80;;
67130;SDS011;54051;53.464;49.532;2022-07-23T09:41:38;7.10;;;4.40;;
67130;SDS011;54051;53.464;49.532;2022-07-23T09:44:09;6.28;;;4.13;;
67130;SDS011;54051;53.464;49.532;2022-07-23T09:46:41;7.10;;;3.53;;
67130;SDS011;54051;53.464;49.532;2022-07-23T09:49:16;6.90;;;3.50;;
67130;SDS011;54051;53.464;49.532;2022-07-23T09:51:47;8.65;;;4.13;;
67130;SDS011;54051;53.464;49.532;2022-07-23T09:54:22;6.80;;;3.42;;
67130;SDS011;54051;53.464;49.532;2022-07-23T09:56:51;13.43;;;4.70;;
67130;SDS011;54051;53.464;49.532;2022-07-23T09:59:18;14.18;;;6.50;;
67130;SDS011;54051;53.464;49.532;2022-07-23T10:01:53;10.57;;;4.72;;
67130;SDS011;54051;53.464;49.532;2022-07-23T10:04:22;11.25;;;4.57;;
67130;SDS011;54051;53.464;49.532;2022-07-23T10:06:53;8.23;;;4.68;;
67130;SDS011;54051;53.464;49.532;2022-07-23T10:09:23;6.03;;;3.60;;
67130;SDS011;54051;53.464;49.532;2022-07-23T10:12:01;7.78;;;3.88;;
67130;SDS011;54051;53.464;49.532;2022-07-23T10:14:40;5.80;;;3.15;;
67130;SDS011;54051;53.464;49.532;2022-07-23T10:17:06;5.68;;;3.40;;
67130;SDS011;54051;53.464;49.532;2022-07-23T10:19:33;5.50;;;2.90;;
67130;SDS011;54051;53.464;49.532;2022-07-23T10:41:08;5.25;;;2.70;;
67130;SDS011;54051;53.464;49.532;2022-07-23T10:43:34;6.55;;;3.03;;
67130;SDS011;54051;53.464;49.532;2022-07-23T10:46:29;5.97;;;3.10;;
67130;SDS011;54051;53.464;49.532;2022-07-23T10:49:20;5.88;;;3.13;;
67130;SDS011;54051;53.464;49.532;2022-07-23T10:54:39;7.93;;;4.60;;
67130;SDS011;54051;53.464;49.532;2022-07-23T11:00:11;4.60;;;2.72;;
67130;SDS011;54051;53.464;49.532;2022-07-23T11:02:48;5.15;;;2.50;;
67130;SDS011;54051;53.464;49.532;2022-07-23T11:05:19;6.75;;;2.63;;
67130;SDS011;54051;53.464;49.532;2022-07-23T11:13:25;7.57;;;4.35;;
67130;SDS011;54051;53.464;49.532;2022-07-23T11:31:52;8.80;;;3.90;;
67130;SDS011;54051;53.464;49.532;2022-07-23T11:37:00;6.15;;;2.92;;
67130;SDS011;54051;53.464;49.532;2022-07-23T11:39:30;5.75;;;2.80;;
67130;SDS011;54051;53.464;49.532;2022-07-23T11:41:57;5.85;;;3.05;;
67130;SDS011;54051;53.464;49.532;2022-07-23T11:44:28;5.55;;;3.30;;
67130;SDS011;54051;53.464;49.532;2022-07-23T11:46:59;5.47;;;3.10;;
67130;SDS011;54051;53.464;49.532;2022-07-23T11:49:30;7.30;;;3.30;;
67130;SDS011;54051;53.464;49.532;2022-07-23T11:54:35;7.15;;;3.50;;
67130;SDS011;54051;53.464;49.532;2022-07-23T11:57:11;5.07;;;3.22;;
67130;SDS011;54051;53.464;49.532;2022-07-23T11:59:37;6.40;;;3.70;;
67130;SDS011;54051;53.464;49.532;2022-07-23T12:02:05;6.88;;;4.25;;
67130;SDS011;54051;53.464;49.532;2022-07-23T12:04:44;8.55;;;3.97;;
67130;SDS011;54051;53.464;49.532;2022-07-23T12:07:25;7.05;;;3.55;;
67130;SDS011;54051;53.464;49.532;2022-07-23T12:09:52;8.98;;;3.78;;
67130;SDS011;54051;53.464;49.532;2022-07-23T12:12:19;6.85;;;3.85;;
67130;SDS011;54051;53.464;49.532;2022-07-23T12:14:55;7.30;;;3.22;;
67130;SDS011;54051;53.464;49.532;2022-07-23T12:17:28;8.20;;;3.95;;
67130;SDS011;54051;53.464;49.532;2022-07-23T12:19:56;8.45;;;5.05;;
67130;SDS011;54051;53.464;49.532;2022-07-23T12:22:26;8.80;;;5.07;;
67130;SDS011;54051;53.464;49.532;2022-07-23T12:25:00;6.15;;;3.25;;
67130;SDS011;54051;53.464;49.532;2022-07-23T12:27:32;7.72;;;3.15;;
67130;SDS011;54051;53.464;49.532;2022-07-23T12:32:47;6.05;;;3.00;;
67130;SDS011;54051;53.464;49.532;2022-07-23T12:35:14;7.65;;;4.53;;
67130;SDS011;54051;53.464;49.532;2022-07-23T12:42:47;8.18;;;3.30;;
67130;SDS011;54051;53.464;49.532;2022-07-23T12:45:15;6.53;;;3.97;;
67130;SDS011;54051;53.464;49.532;2022-07-23T12:50:36;6.10;;;3.10;;
67130;SDS011;54051;53.464;49.532;2022-07-23T12:53:15;5.57;;;3.15;;
67130;SDS011;54051;53.464;49.532;2022-07-23T12:55:43;6.88;;;3.50;;
67130;SDS011;54051;53.464;49.532;2022-07-23T12:58:11;5.28;;;2.83;;
67130;SDS011;54051;53.464;49.532;2022-07-23T13:01:01;5.97;;;3.00;;
67130;SDS011;54051;53.464;49.532;2022-07-23T13:03:34;4.97;;;3.20;;
67130;SDS011;54051;53.464;49.532;2022-07-23T13:06:06;5.23;;;2.97;;
67130;SDS011;54051;53.464;49.532;2022-07-23T13:08:34;8.32;;;2.80;;
67130;SDS011;54051;53.464;49.532;2022-07-23T13:11:02;7.93;;;5.03;;
67130;SDS011;54051;53.464;49.532;2022-07-23T13:13:33;7.00;;;3.00;;
67130;SDS011;54051;53.464;49.532;2022-07-23T13:16:00;9.27;;;5.82;;
67130;SDS011;54051;53.464;49.532;2022-07-23T13:18:27;11.13;;;6.28;;
67130;SDS011;54051;53.464;49.532;2022-07-23T13:23:20;14.00;;;8.38;;
67130;SDS011;54051;53.464;49.532;2022-07-23T13:25:47;11.98;;;7.97;;
67130;SDS011;54051;53.464;49.532;2022-07-23T13:28:14;11.43;;;7.18;;
67130;SDS011;54051;53.464;49.532;2022-07-23T13:30:42;11.68;;;6.72;;
67130;SDS011;54051;53.464;49.532;2022-07-23T13:33:08;10.45;;;7.05;;
67130;SDS011;54051;53.464;49.532;2022-07-23T13:35:35;12.63;;;7.22;;
67130;SDS011;54051;53.464;49.532;2022-07-23T13:38:03;9.32;;;6.50;;
67130;SDS011;54051;53.464;49.532;2022-07-23T13:40:33;16.25;;;11.27;;
67130;SDS011;54051;53.464;49.532;2022-07-23T13:43:00;17.27;;;10.20;;
67130;SDS011;54051;53.464;49.532;2022-07-23T13:45:27;13.80;;;9.27;;
67130;SDS011;54051;53.464;49.532;2022-07-23T13:47:53;15.63;;;10.10;;
67130;SDS011;54051;53.464;49.532;2022-07-23T13:50:19;15.95;;;9.68;;
67130;SDS011;54051;53.464;49.532;2022-07-23T13:52:45;16.40;;;10.15;;
67130;SDS011;54051;53.464;49.532;2022-07-23T13:55:11;19.05;;;11.10;;
67130;SDS011;54051;53.464;49.532;2022-07-23T13:57:37;21.88;;;13.73;;
67130;SDS011;54051;53.464;49.532;2022-07-23T14:02:31;17.75;;;11.18;;
67130;SDS011;54051;53.464;49.532;2022-07-23T14:04:57;10.77;;;6.82;;
67130;SDS011;54051;53.464;49.532;2022-07-23T14:07:23;12.27;;;5.57;;
67130;SDS011;54051;53.464;49.532;2022-07-23T14:09:49;10.05;;;5.60;;
67130;SDS011;54051;53.464;49.532;2022-07-23T14:12:15;10.48;;;5.93;;
67130;SDS011;54051;53.464;49.532;2022-07-23T14:14:41;13.20;;;5.72;;
67130;SDS011;54051;53.464;49.532;2022-07-23T14:17:08;11.70;;;6.00;;
67130;SDS011;54051;53.464;49.532;2022-07-23T14:19:34;13.68;;;6.00;;
67130;SDS011;54051;53.464;49.532;2022-07-23T14:22:00;13.48;;;5.97;;
67130;SDS011;54051;53.464;49.532;2022-07-23T14:24:26;12.38;;;6.03;;
67130;SDS011;54051;53.464;49.532;2022-07-23T14:26:52;12.85;;;5.47;;
67130;SDS011;54051;53.464;49.532;2022-07-23T14:29:18;11.40;;;5.30;;
67130;SDS011;54051;53.464;49.532;2022-07-23T14:31:44;10.40;;;5.47;;
67130;SDS011;54051;53.464;49.532;2022-07-23T14:34:11;15.90;;;6.15;;
67130;SDS011;54051;53.464;49.532;2022-07-23T14:36:38;12.02;;;6.25;;
67130;SDS011;54051;53.464;49.532;2022-07-23T14:39:04;15.65;;;6.70;;
67130;SDS011;54051;53.464;49.532;2022-07-23T14:41:30;16.00;;;7.65;;
67130;SDS011;54051;53.464;49.532;2022-07-23T14:43:56;16.13;;;8.65;;
67130;SDS011;54051;53.464;49.532;2022-07-23T14:46:22;17.10;;;8.32;;
67130;SDS011;54051;53.464;49.532;2022-07-23T14:48:48;23.17;;;12.35;;
67130;SDS011;54051;53.464;49.532;2022-07-23T14:51:14;18.40;;;10.50;;
67130;SDS011;54051;53.464;49.532;2022-07-23T14:53:40;19.65;;;11.30;;
67130;SDS011;54051;53.464;49.532;2022-07-23T14:56:06;19.23;;;11.73;;
67130;SDS011;54051;53.464;49.532;2022-07-23T14:58:32;22.98;;;12.45;;
67130;SDS011;54051;53.464;49.532;2022-07-23T15:00:58;15.13;;;7.70;;
67130;SDS011;54051;53.464;49.532;2022-07-23T15:05:50;15.00;;;6.30;;
67130;SDS011;54051;53.464;49.532;2022-07-23T15:10:43;10.48;;;4.68;;
67130;SDS011;54051;53.464;49.532;2022-07-23T15:13:09;8.80;;;5.10;;
67130;SDS011;54051;53.464;49.532;2022-07-23T15:15:34;10.10;;;4.97;;
67130;SDS011;54051;53.464;49.532;2022-07-23T15:18:00;9.55;;;4.88;;
67130;SDS011;54051;53.464;49.532;2022-07-23T15:20:26;7.93;;;4.22;;
67130;SDS011;54051;53.464;49.532;2022-07-23T15:22:52;9.77;;;4.43;;
67130;SDS011;54051;53.464;49.532;2022-07-23T15:25:18;7.25;;;4.10;;
67130;SDS011;54051;53.464;49.532;2022-07-23T15:27:44;9.88;;;5.38;;
67130;SDS011;54051;53.464;49.532;2022-07-23T15:30:10;7.50;;;4.30;;
67130;SDS011;54051;53.464;49.532;2022-07-23T15:32:37;6.65;;;3.88;;
67130;SDS011;54051;53.464;49.532;2022-07-23T15:35:03;6.53;;;4.38;;
67130;SDS011;54051;53.464;49.532;2022-07-23T15:37:32;9.52;;;4.28;;
67130;SDS011;54051;53.464;49.532;2022-07-23T15:39:58;7.90;;;4.05;;
67130;SDS011;54051;53.464;49.532;2022-07-23T15:42:24;8.50;;;4.35;;
67130;SDS011;54051;53.464;49.532;2022-07-23T15:44:50;7.53;;;4.00;;
67130;SDS011;54051;53.464;49.532;2022-07-23T15:47:17;7.50;;;4.50;;
67130;SDS011;54051;53.464;49.532;2022-07-23T15:49:44;6.05;;;4.07;;
67130;SDS011;54051;53.464;49.532;2022-07-23T15:52:11;7.25;;;4.35;;
67130;SDS011;54051;53.464;49.532;2022-07-23T15:54:37;10.38;;;4.50;;
67130;SDS011;54051;53.464;49.532;2022-07-23T15:57:04;8.98;;;6.28;;
67130;SDS011;54051;53.464;49.532;2022-07-23T15:59:30;17.63;;;12.43;;
67130;SDS011;54051;53.464;49.532;2022-07-23T16:04:22;11.85;;;8.27;;
67130;SDS011;54051;53.464;49.532;2022-07-23T16:06:49;10.85;;;7.93;;
67130;SDS011;54051;53.464;49.532;2022-07-23T16:14:07;9.73;;;6.65;;
67130;SDS011;54051;53.464;49.532;2022-07-23T16:16:33;8.75;;;5.95;;
67130;SDS011;54051;53.464;49.532;2022-07-23T16:19:00;10.73;;;6.28;;
67130;SDS011;54051;53.464;49.532;2022-07-23T16:21:26;10.40;;;6.70;;
67130;SDS011;54051;53.464;49.532;2022-07-23T16:23:52;9.20;;;6.45;;
67130;SDS011;54051;53.464;49.532;2022-07-23T16:26:18;10.30;;;6.70;;
67130;SDS011;54051;53.464;49.532;2022-07-23T16:28:46;10.60;;;6.35;;
67130;SDS011;54051;53.464;49.532;2022-07-23T16:31:13;10.18;;;6.60;;
67130;SDS011;54051;53.464;49.532;2022-07-23T16:36:06;10.10;;;6.05;;
67130;SDS011;54051;53.464;49.532;2022-07-23T16:38:33;12.63;;;6.80;;
67130;SDS011;54051;53.464;49.532;2022-07-23T16:41:00;9.23;;;6.40;;
67130;SDS011;54051;53.464;49.532;2022-07-23T16:43:26;25.08;;;15.93;;
67130;SDS011;54051;53.464;49.532;2022-07-23T16:45:53;53.08;;;33.17;;
67130;SDS011;54051;53.464;49.532;2022-07-23T16:48:19;47.92;;;30.52;;
67130;SDS011;54051;53.464;49.532;2022-07-23T16:50:46;46.35;;;31.25;;
67130;SDS011;54051;53.464;49.532;2022-07-23T16:53:13;41.85;;;29.17;;
67130;SDS011;54051;53.464;49.532;2022-07-23T16:55:39;35.72;;;24.98;;
67130;SDS011;54051;53.464;49.532;2022-07-23T16:58:05;34.65;;;23.10;;
67130;SDS011;54051;53.464;49.532;2022-07-23T17:00:31;31.67;;;21.17;;
67130;SDS011;54051;53.464;49.532;2022-07-23T17:02:58;29.90;;;20.50;;
67130;SDS011;54051;53.464;49.532;2022-07-23T17:05:24;31.85;;;20.83;;
67130;SDS011;54051;53.464;49.532;2022-07-23T17:07:50;31.55;;;23.05;;
67130;SDS011;54051;53.464;49.532;2022-07-23T17:10:18;33.28;;;23.00;;
67130;SDS011;54051;53.464;49.532;2022-07-23T17:12:46;24.33;;;18.02;;
67130;SDS011;54051;53.464;49.532;2022-07-23T17:15:13;23.33;;;14.70;;
67130;SDS011;54051;53.464;49.532;2022-07-23T17:17:39;17.83;;;13.43;;
67130;SDS011;54051;53.464;49.532;2022-07-23T17:20:05;18.35;;;12.43;;